Time;durP1;ratioP1;P1;durP2;ratioP2;P2;SDS_P1;SDS_P2;PMS_P1;PMS_P2;Temp;Humidity;BMP_temperature;BMP_pressure;BME280_temperature;BME280_humidity;BME280_pressure;Samples;Min_cycle;Max_cycle;Signal;HPM_P1;HPM_P2
2021/09/17 00:01:56;;;;;;;12.15;10.20;;;;;;;15.89;81.31;99891.09;2128863;82;20986;-75
2021/09/17 00:04:58;;;;;;;13.00;11.70;;;;;;;15.87;81.35;99889.13;2128240;82;20973;-76
2021/09/17 00:07:59;;;;;;;16.40;11.05;;;;;;;15.87;81.40;99891.80;2130653;82;21016;-76
2021/09/17 00:11:01;;;;;;;11.48;10.28;;;;;;;15.87;81.45;99887.80;2127428;82;21444;-76
2021/09/17 00:14:02;;;;;;;13.60;10.30;;;;;;;15.86;81.38;99886.16;2127417;82;20993;-76
2021/09/17 00:17:04;;;;;;;16.97;11.12;;;;;;;15.86;81.50;99886.16;2129920;82;20958;-75
2021/09/17 00:20:08;;;;;;;13.83;11.10;;;;;;;15.86;81.45;99888.83;2130025;82;21559;-75
2021/09/17 00:23:10;;;;;;;15.53;11.43;;;;;;;15.83;81.48;99893.27;2128808;82;21072;-76
2021/09/17 00:26:11;;;;;;;18.37;11.33;;;;;;;15.84;81.54;99894.90;2126665;82;21510;-76
2021/09/17 00:29:13;;;;;;;12.45;10.93;;;;;;;15.82;81.49;99898.28;2126024;82;20980;-75
2021/09/17 00:32:14;;;;;;;11.50;10.30;;;;;;;15.78;81.43;99889.04;2127180;82;20968;-77
2021/09/17 00:35:16;;;;;;;14.80;9.50;;;;;;;15.72;81.39;99889.87;2127027;82;21063;-76
2021/09/17 00:38:17;;;;;;;15.43;10.03;;;;;;;15.66;81.46;99884.28;2131010;82;21556;-75
2021/09/17 00:41:19;;;;;;;11.83;9.90;;;;;;;15.60;81.45;99874.92;2126754;82;21624;-75
2021/09/17 00:44:26;;;;;;;11.25;9.68;;;;;;;15.59;81.59;99874.59;2127731;81;20984;-75
2021/09/17 00:47:27;;;;;;;12.53;8.98;;;;;;;15.60;81.56;99873.59;2131557;82;20989;-77
2021/09/17 00:50:28;;;;;;;10.70;9.60;;;;;;;15.60;81.53;99874.41;2126729;82;21022;-77
2021/09/17 00:53:33;;;;;;;14.07;9.40;;;;;;;15.61;81.58;99866.68;2123009;83;21041;-76
2021/09/17 00:56:33;;;;;;;15.85;9.73;;;;;;;15.59;81.58;99859.37;2102994;83;21098;-76
2021/09/17 00:59:35;;;;;;;11.03;9.55;;;;;;;15.60;81.56;99863.70;2129029;83;21081;-76
2021/09/17 01:02:36;;;;;;;13.53;9.23;;;;;;;15.60;81.56;99857.55;2126621;83;21504;-76
2021/09/17 01:05:38;;;;;;;14.40;8.88;;;;;;;15.56;81.58;99855.77;2127319;83;20953;-75
2021/09/17 01:08:40;;;;;;;11.12;9.20;;;;;;;15.51;81.44;99851.55;2127997;83;21032;-76
2021/09/17 01:11:42;;;;;;;11.03;9.10;;;;;;;15.45;81.41;99850.52;2129251;83;21435;-77
2021/09/17 01:14:44;;;;;;;12.43;8.80;;;;;;;15.42;81.49;99848.78;2125380;83;21067;-76
2021/09/17 01:17:46;;;;;;;8.98;7.87;;;;;;;15.36;81.35;99849.08;2126486;83;21014;-77
2021/09/17 01:20:47;;;;;;;7.67;6.87;;;;;;;15.27;81.32;99846.82;2129651;83;21020;-76
2021/09/17 01:23:49;;;;;;;8.13;6.97;;;;;;;15.21;81.28;99844.45;2122327;82;21029;-76
2021/09/17 01:26:50;;;;;;;7.37;6.62;;;;;;;15.13;81.26;99841.97;2126843;82;21029;-76
2021/09/17 01:29:53;;;;;;;8.68;7.03;;;;;;;15.09;81.35;99842.89;2125858;83;21010;-77
2021/09/17 01:32:54;;;;;;;9.18;7.28;;;;;;;15.02;81.44;99835.36;2130551;83;21012;-76
2021/09/17 01:36:06;;;;;;;6.97;6.30;;;;;;;15.04;81.56;99833.84;2129391;83;20982;-77
2021/09/17 01:39:07;;;;;;;8.50;6.97;;;;;;;15.02;81.46;99836.18;2125751;83;21008;-77
2021/09/17 01:42:09;;;;;;;8.75;6.12;;;;;;;15.02;81.42;99835.36;2126608;82;21006;-77
2021/09/17 01:45:12;;;;;;;7.92;5.87;;;;;;;15.00;81.37;99838.23;2125852;83;21061;-76
2021/09/17 01:48:13;;;;;;;6.72;6.12;;;;;;;14.94;81.28;99835.55;2127957;82;21016;-77
2021/09/17 01:51:15;;;;;;;7.78;5.90;;;;;;;14.91;81.33;99823.94;2127887;82;21075;-76
2021/09/17 01:54:16;;;;;;;6.97;6.28;;;;;;;14.89;81.38;99830.80;2127695;81;20980;-76
2021/09/17 01:57:17;;;;;;;7.37;5.83;;;;;;;14.90;81.39;99832.47;2131081;81;21022;-76
2021/09/17 02:00:20;;;;;;;8.78;6.53;;;;;;;14.86;81.34;99831.72;2122819;82;21475;-76
2021/09/17 02:03:21;;;;;;;10.68;6.30;;;;;;;14.79;81.25;99822.37;2126522;81;21088;-75
2021/09/17 02:06:24;;;;;;;6.72;5.97;;;;;;;14.71;81.34;99822.03;2124485;81;21024;-76
2021/09/17 02:09:26;;;;;;;12.78;6.00;;;;;;;14.68;81.45;99819.77;2129897;82;21040;-76
2021/09/17 02:12:27;;;;;;;7.47;6.33;;;;;;;14.71;81.53;99823.36;2129649;82;20966;-76
2021/09/17 02:15:28;;;;;;;7.12;6.20;;;;;;;14.67;81.46;99820.80;2126136;81;20960;-75
2021/09/17 02:18:30;;;;;;;6.80;6.20;;;;;;;14.67;81.60;99820.80;2134353;82;21095;-77
2021/09/17 02:21:31;;;;;;;7.12;6.20;;;;;;;14.65;81.52;99812.16;2132157;82;20955;-75
2021/09/17 02:24:33;;;;;;;6.12;5.50;;;;;;;14.65;81.52;99806.81;2130359;82;21503;-76
2021/09/17 02:27:34;;;;;;;10.55;6.53;;;;;;;14.63;81.40;99808.86;2126787;82;21479;-76
2021/09/17 02:30:36;;;;;;;8.18;6.17;;;;;;;14.60;81.46;99803.92;2128135;82;21498;-77
2021/09/17 02:33:38;;;;;;;6.78;6.03;;;;;;;14.60;81.51;99803.10;2130014;82;21020;-76
2021/09/17 02:36:39;;;;;;;6.58;5.78;;;;;;;14.56;81.54;99800.84;2126333;82;21047;-77
2021/09/17 02:39:41;;;;;;;9.05;6.25;;;;;;;14.54;81.40;99803.39;2130607;82;20997;-77
2021/09/17 02:42:43;;;;;;;6.55;5.87;;;;;;;14.51;81.44;99799.23;2128274;82;21031;-76
2021/09/17 02:45:45;;;;;;;9.90;6.12;;;;;;;14.44;81.15;99791.70;2131380;82;21807;-76
2021/09/17 02:48:47;;;;;;;9.10;6.55;;;;;;;14.30;81.17;99793.53;2130992;82;21398;-76
2021/09/17 02:51:49;;;;;;;10.05;6.58;;;;;;;14.20;81.25;99796.25;2131808;82;21044;-76
2021/09/17 02:54:51;;;;;;;9.55;6.30;;;;;;;14.17;81.21;99792.12;2128223;82;21032;-76
2021/09/17 02:57:53;;;;;;;7.95;6.17;;;;;;;14.11;81.12;99789.73;2130318;82;21046;-77
2021/09/17 03:00:54;;;;;;;8.83;5.90;;;;;;;14.01;81.03;99786.59;2129994;82;21517;-76
2021/09/17 03:03:56;;;;;;;10.13;5.55;;;;;;;13.95;81.02;99787.91;2135222;82;20949;-76
2021/09/17 03:06:58;;;;;;;9.80;6.20;;;;;;;13.86;81.04;99787.23;2127155;82;21110;-76
2021/09/17 03:09:59;;;;;;;8.93;6.25;;;;;;;13.81;81.11;99782.48;2128788;82;21117;-75
2021/09/17 03:13:01;;;;;;;8.55;6.42;;;;;;;13.75;80.96;99777.94;2130631;81;21511;-77
2021/09/17 03:16:05;;;;;;;8.90;5.78;;;;;;;13.70;80.99;99780.36;2128314;82;21001;-76
2021/09/17 03:19:06;;;;;;;13.68;6.90;;;;;;;13.65;80.93;99784.11;2125196;82;21125;-77
2021/09/17 03:22:07;;;;;;;10.03;6.67;;;;;;;13.57;80.82;99785.11;2129634;82;21572;-77
2021/09/17 03:25:10;;;;;;;9.58;7.37;;;;;;;13.52;81.04;99785.38;2126900;81;20937;-77
2021/09/17 03:28:11;;;;;;;8.90;7.25;;;;;;;13.50;81.18;99775.41;2128923;82;21608;-77
2021/09/17 03:31:12;;;;;;;7.83;7.00;;;;;;;13.45;81.29;99778.64;2132418;81;20950;-77
2021/09/17 03:34:14;;;;;;;10.35;7.50;;;;;;;13.39;81.22;99776.24;2130353;82;20974;-77
2021/09/17 03:37:15;;;;;;;14.60;8.70;;;;;;;13.38;81.41;99776.45;2130175;82;21684;-76
2021/09/17 03:40:17;;;;;;;11.25;8.55;;;;;;;13.33;81.29;99772.20;2132222;82;21013;-76
2021/09/17 03:43:18;;;;;;;11.50;9.63;;;;;;;13.29;81.33;99773.11;2129327;81;20982;-75
2021/09/17 03:46:20;;;;;;;11.57;9.45;;;;;;;13.26;81.39;99766.80;2131381;82;21487;-76
2021/09/17 03:49:21;;;;;;;15.10;10.28;;;;;;;13.22;81.41;99765.52;2133936;82;21058;-77
2021/09/17 03:52:23;;;;;;;13.30;9.60;;;;;;;13.20;81.34;99758.22;2148311;82;20983;-76
2021/09/17 03:55:24;;;;;;;11.57;10.38;;;;;;;13.17;81.44;99765.27;2151255;82;20987;-77
2021/09/17 03:58:26;;;;;;;13.15;9.85;;;;;;;13.11;81.42;99768.70;2148662;82;21038;-77
2021/09/17 04:01:27;;;;;;;13.15;10.40;;;;;;;13.08;81.53;99769.09;2150419;81;21509;-78
2021/09/17 04:04:29;;;;;;;14.25;10.63;;;;;;;13.02;81.43;99761.36;2147778;82;20979;-77
2021/09/17 04:07:30;;;;;;;12.75;10.45;;;;;;;12.95;81.49;99763.97;2146443;82;21070;-78
2021/09/17 04:10:32;;;;;;;12.30;11.00;;;;;;;12.95;81.66;99770.63;2151933;82;20967;-78
2021/09/17 04:13:33;;;;;;;12.90;10.93;;;;;;;12.94;81.74;99769.48;2148558;82;20981;-77
2021/09/17 04:16:34;;;;;;;15.65;11.88;;;;;;;12.90;81.66;99765.05;2148882;82;21053;-78
2021/09/17 04:19:37;;;;;;;18.37;12.15;;;;;;;12.87;81.85;99765.42;2148405;81;21094;-77
2021/09/17 04:22:39;;;;;;;14.50;12.35;;;;;;;12.82;82.09;99768.34;2148304;82;21007;-77
2021/09/17 04:25:40;;;;;;;17.50;13.15;;;;;;;12.79;82.24;99771.69;2150979;82;21069;-77
2021/09/17 04:28:42;;;;;;;17.52;13.32;;;;;;;12.77;82.46;99776.38;2148420;82;20936;-77
2021/09/17 04:31:43;;;;;;;21.57;13.03;;;;;;;12.77;82.57;99770.23;2148491;81;21472;-79
2021/09/17 04:34:45;;;;;;;15.50;13.10;;;;;;;12.78;82.68;99770.53;2151614;82;21074;-77
2021/09/17 04:37:53;;;;;;;17.82;14.43;;;;;;;12.78;82.84;99770.53;2150529;82;21040;-77
2021/09/17 04:40:52;;;;;;;18.95;13.90;;;;;;;12.81;82.89;99773.33;2148472;81;21538;-77
2021/09/17 04:43:54;;;;;;;16.90;13.40;;;;;;;12.84;82.90;99766.29;2151292;81;21013;-76
2021/09/17 04:46:56;;;;;;;17.62;13.70;;;;;;;12.81;82.88;99762.20;2151320;81;20991;-76
2021/09/17 04:49:59;;;;;;;17.77;14.03;;;;;;;12.79;82.92;99768.21;2148487;82;20974;-76
2021/09/17 04:53:01;;;;;;;15.68;13.00;;;;;;;12.79;83.04;99765.55;2147034;82;21017;-77
2021/09/17 04:56:03;;;;;;;19.10;14.80;;;;;;;12.81;83.16;99769.34;2153196;82;21017;-77
2021/09/17 04:59:05;;;;;;;15.23;13.18;;;;;;;12.80;83.15;99769.84;2148962;82;21551;-77
2021/09/17 05:02:06;;;;;;;20.35;14.00;;;;;;;12.83;83.24;99764.66;2145970;81;20983;-76
2021/09/17 05:05:09;;;;;;;19.05;14.20;;;;;;;12.83;83.37;99762.81;2149656;81;20998;-76
2021/09/17 05:08:10;;;;;;;15.98;13.25;;;;;;;12.89;83.51;99764.70;2151713;82;20944;-75
2021/09/17 05:11:12;;;;;;;18.75;13.35;;;;;;;12.94;83.52;99762.81;2150288;81;21064;-77
2021/09/17 05:14:13;;;;;;;16.75;13.40;;;;;;;13.00;83.72;99761.53;2149654;82;21055;-78
2021/09/17 05:17:15;;;;;;;18.30;13.38;;;;;;;13.13;83.82;99766.17;2148756;82;21454;-77
2021/09/17 05:20:18;;;;;;;15.75;12.47;;;;;;;13.37;83.84;99764.94;2149309;82;21061;-76
2021/09/17 05:23:19;;;;;;;15.35;13.38;;;;;;;13.60;83.78;99768.72;2147802;82;21010;-78
2021/09/17 05:26:21;;;;;;;14.55;12.53;;;;;;;13.80;83.67;99763.52;2147993;82;21474;-80
2021/09/17 05:29:23;;;;;;;13.60;12.20;;;;;;;14.03;83.53;99773.89;2149134;82;21013;-79
2021/09/17 05:32:24;;;;;;;13.60;12.15;;;;;;;14.14;83.12;99775.18;2147424;82;21052;-77
2021/09/17 05:35:26;;;;;;;17.85;11.55;;;;;;;14.11;82.88;99776.91;2146902;82;20995;-78
2021/09/17 05:38:27;;;;;;;16.05;11.88;;;;;;;14.10;82.87;99780.06;2151016;82;21008;-78
2021/09/17 05:41:29;;;;;;;14.47;11.12;;;;;;;14.09;82.81;99780.28;2147560;81;20989;-78
2021/09/17 05:44:30;;;;;;;16.37;10.90;;;;;;;14.09;82.76;99779.77;2148851;81;21058;-77
2021/09/17 05:47:32;;;;;;;15.32;12.00;;;;;;;14.11;82.78;99779.58;2148737;81;21439;-81
2021/09/17 05:50:33;;;;;;;15.00;11.33;;;;;;;14.09;82.80;99777.09;2137641;82;21584;-74
2021/09/17 05:53:35;;;;;;;15.70;11.53;;;;;;;14.15;82.83;99776.81;2123863;82;21085;-72
2021/09/17 05:56:36;;;;;;;16.65;10.88;;;;;;;14.23;82.91;99767.31;2125950;81;21021;-74
2021/09/17 05:59:38;;;;;;;14.13;10.65;;;;;;;14.32;82.87;99764.77;2129708;82;21018;-72
2021/09/17 06:02:40;;;;;;;17.00;10.72;;;;;;;14.43;82.85;99775.91;2125323;82;20960;-72
2021/09/17 06:05:41;;;;;;;14.28;11.05;;;;;;;14.59;83.02;99775.59;2128288;81;20981;-72
2021/09/17 06:08:43;;;;;;;17.02;10.85;;;;;;;14.73;82.83;99769.25;2125668;82;21452;-73
2021/09/17 06:11:45;;;;;;;14.25;10.90;;;;;;;14.84;82.62;99772.33;2127598;82;21060;-73
2021/09/17 06:14:46;;;;;;;12.85;9.33;;;;;;;15.01;82.45;99776.29;2128802;81;21046;-72
2021/09/17 06:17:48;;;;;;;15.88;10.48;;;;;;;15.02;81.99;99769.39;2129029;82;20992;-72
2021/09/17 06:20:49;;;;;;;12.93;9.93;;;;;;;15.01;81.94;99766.94;2129275;82;21055;-72
2021/09/17 06:23:51;;;;;;;12.65;8.70;;;;;;;15.07;82.06;99763.96;2133378;82;21027;-72
2021/09/17 06:26:52;;;;;;;15.50;9.40;;;;;;;15.17;82.17;99757.68;2136969;81;21459;-72
2021/09/17 06:29:54;;;;;;;15.20;9.18;;;;;;;15.31;81.90;99761.99;2128199;82;21475;-73
2021/09/17 06:32:55;;;;;;;12.55;9.15;;;;;;;15.38;81.77;99766.02;2128369;82;20970;-73
2021/09/17 06:35:57;;;;;;;9.38;8.30;;;;;;;15.36;81.29;99761.38;2127162;82;20961;-74
2021/09/17 06:39:00;;;;;;;13.22;9.15;;;;;;;15.29;81.10;99761.40;2124646;82;20971;-73
2021/09/17 06:42:02;;;;;;;12.95;8.90;;;;;;;15.29;81.34;99759.22;2131098;82;21051;-73
2021/09/17 06:45:06;;;;;;;11.20;8.45;;;;;;;15.23;81.08;99767.05;2130491;81;21062;-72
2021/09/17 06:48:07;;;;;;;12.05;8.08;;;;;;;15.19;81.17;99769.81;2130136;82;20962;-72
2021/09/17 06:51:08;;;;;;;10.03;8.40;;;;;;;15.19;81.27;99770.33;2124893;82;21543;-74
2021/09/17 06:54:10;;;;;;;9.25;7.87;;;;;;;15.16;81.18;99770.22;2123219;83;20962;-72
2021/09/17 06:57:12;;;;;;;10.72;8.35;;;;;;;15.17;81.24;99770.52;2127696;83;21489;-72
2021/09/17 07:00:15;;;;;;;14.35;8.40;;;;;;;15.15;81.23;99773.12;2126316;83;21436;-73
2021/09/17 07:03:17;;;;;;;12.35;8.85;;;;;;;15.11;81.03;99768.67;2128053;83;21030;-73
2021/09/17 07:06:18;;;;;;;10.53;7.95;;;;;;;15.12;81.15;99768.16;2125817;83;21454;-73
2021/09/17 07:09:20;;;;;;;10.53;8.95;;;;;;;15.12;81.12;99771.67;2130191;83;21041;-71
2021/09/17 07:12:22;;;;;;;11.65;8.85;;;;;;;15.11;81.01;99764.66;2123050;83;20979;-72
2021/09/17 07:15:24;;;;;;;10.23;9.00;;;;;;;15.20;81.22;99774.15;2123898;83;21072;-74
2021/09/17 07:18:25;;;;;;;13.38;9.58;;;;;;;15.23;81.10;99769.73;2126229;83;20942;-73
2021/09/17 07:21:27;;;;;;;14.30;9.85;;;;;;;15.24;80.96;99760.67;2125042;83;21491;-74
2021/09/17 07:24:29;;;;;;;16.50;9.43;;;;;;;15.25;80.98;99761.48;2124828;83;20989;-73
2021/09/17 07:27:31;;;;;;;10.43;8.98;;;;;;;15.31;80.92;99761.17;2128963;83;20997;-73
2021/09/17 07:30:33;;;;;;;9.55;8.63;;;;;;;15.35;80.91;99759.23;2130493;83;21005;-73
2021/09/17 07:33:35;;;;;;;14.63;9.45;;;;;;;15.38;80.73;99762.01;2129685;83;21011;-74
2021/09/17 07:36:36;;;;;;;14.93;10.48;;;;;;;15.35;80.51;99762.42;2125690;83;21642;-73
2021/09/17 07:39:38;;;;;;;11.48;10.10;;;;;;;15.35;80.50;99765.09;2121645;83;21002;-73
2021/09/17 07:42:41;;;;;;;11.63;10.43;;;;;;;15.31;80.37;99770.02;2126741;83;21001;-72
2021/09/17 07:45:42;;;;;;;13.32;10.15;;;;;;;15.31;80.45;99770.02;2123331;83;20979;-72
2021/09/17 07:48:44;;;;;;;12.23;9.48;;;;;;;15.29;80.22;99777.44;2119583;83;20972;-72
2021/09/17 07:51:46;;;;;;;13.88;10.30;;;;;;;15.27;80.31;99778.67;2131362;82;21025;-73
2021/09/17 07:54:47;;;;;;;12.50;10.18;;;;;;;15.27;80.43;99780.00;2135978;81;21044;-74
2021/09/17 07:57:49;;;;;;;13.28;10.85;;;;;;;15.24;80.34;99790.06;2133183;82;21552;-72
2021/09/17 08:00:51;;;;;;;10.93;9.83;;;;;;;15.20;80.35;99788.84;2136413;82;21519;-73
2021/09/17 08:03:53;;;;;;;13.75;10.60;;;;;;;15.20;80.52;99786.17;2132495;82;20963;-73
2021/09/17 08:06:55;;;;;;;17.45;10.93;;;;;;;15.19;80.46;99788.52;2136012;82;20980;-73
2021/09/17 08:09:56;;;;;;;13.53;10.15;;;;;;;15.17;80.50;99778.54;2134371;82;20952;-72
2021/09/17 08:12:58;;;;;;;13.43;10.60;;;;;;;15.19;80.50;99779.16;2136862;81;21033;-73
2021/09/17 08:16:00;;;;;;;15.65;11.00;;;;;;;15.22;80.56;99785.43;2135571;81;21040;-73
2021/09/17 08:19:03;;;;;;;12.47;9.38;;;;;;;15.23;80.38;99783.09;2135277;82;21457;-73
2021/09/17 08:22:05;;;;;;;12.80;9.10;;;;;;;15.26;80.30;99788.54;2133149;82;21504;-73
2021/09/17 08:25:08;;;;;;;11.00;9.53;;;;;;;15.31;80.38;99786.57;2134023;81;20958;-73
2021/09/17 08:28:10;;;;;;;14.90;9.05;;;;;;;15.37;80.43;99775.89;2134864;81;21453;-74
2021/09/17 08:31:11;;;;;;;9.58;8.58;;;;;;;15.41;80.32;99778.97;2138175;82;21070;-72
2021/09/17 08:34:14;;;;;;;13.68;9.13;;;;;;;15.46;80.21;99781.85;2131506;82;21004;-72
2021/09/17 08:37:16;;;;;;;10.80;8.75;;;;;;;15.55;80.19;99780.60;2132876;81;21012;-72
2021/09/17 08:40:17;;;;;;;8.98;8.08;;;;;;;15.67;80.20;99781.61;2133975;82;21058;-73
2021/09/17 08:43:21;;;;;;;9.80;8.43;;;;;;;15.80;79.95;99786.67;2135789;82;21070;-74
2021/09/17 08:46:23;;;;;;;10.15;7.83;;;;;;;15.90;79.72;99783.03;2132383;82;21057;-73
2021/09/17 08:49:25;;;;;;;8.78;7.40;;;;;;;16.01;79.53;99781.57;2139099;82;21059;-72
2021/09/17 08:52:26;;;;;;;7.42;6.72;;;;;;;16.08;79.53;99785.06;2131283;82;21528;-72
2021/09/17 08:55:28;;;;;;;8.38;6.45;;;;;;;16.13;79.19;99782.06;2124953;82;20991;-73
2021/09/17 08:58:29;;;;;;;9.35;6.00;;;;;;;16.13;78.71;99783.39;2125054;81;20982;-73
2021/09/17 09:01:36;;;;;;;10.82;6.72;;;;;;;16.12;78.64;99781.73;2124425;82;20995;-73
2021/09/17 09:04:41;;;;;;;9.38;6.25;;;;;;;16.07;78.38;99782.88;2126081;82;21502;-72
2021/09/17 09:07:41;;;;;;;8.80;6.12;;;;;;;16.09;78.27;99788.03;2125914;82;21578;-72
2021/09/17 09:10:43;;;;;;;8.75;5.75;;;;;;;16.12;78.25;99783.08;2128186;82;21637;-73
2021/09/17 09:14:09;;;;;;;7.58;6.20;;;;;;;16.20;78.37;99789.23;2129267;82;21008;-74
2021/09/17 09:17:10;;;;;;;8.63;6.45;;;;;;;16.26;78.31;99789.73;2133445;82;20977;-73
2021/09/17 09:20:26;;;;;;;7.80;5.20;;;;;;;16.38;78.30;99785.86;2125560;82;21072;-71
2021/09/17 09:23:27;;;;;;;7.40;5.37;;;;;;;16.47;78.03;99782.75;2130650;81;20976;-72
2021/09/17 09:26:29;;;;;;;7.85;5.28;;;;;;;16.52;77.87;99781.56;2127571;81;21045;-73
2021/09/17 09:29:31;;;;;;;9.25;5.05;;;;;;;16.60;77.91;99785.86;2129490;82;20972;-73
2021/09/17 09:32:35;;;;;;;9.30;5.83;;;;;;;16.69;77.83;99785.91;2126197;82;21048;-79
2021/09/17 09:35:38;;;;;;;7.42;4.70;;;;;;;16.86;77.85;99782.23;2126404;81;21029;-79
2021/09/17 09:38:50;;;;;;;8.58;4.35;;;;;;;17.01;77.29;99785.45;2126370;81;20958;-77
2021/09/17 09:41:53;;;;;;;6.53;3.77;;;;;;;17.10;76.59;99775.80;2125104;81;21516;-79
2021/09/17 09:45:16;;;;;;;4.58;3.83;;;;;;;17.13;75.89;99775.36;2124111;82;21077;-78
2021/09/17 09:48:18;;;;;;;7.62;4.67;;;;;;;17.17;76.09;99772.53;2127325;82;21092;-78
2021/09/17 09:51:19;;;;;;;7.10;3.90;;;;;;;17.22;75.88;99775.39;2127312;81;21050;-76
2021/09/17 09:54:24;;;;;;;3.90;3.47;;;;;;;17.34;75.94;99772.81;2109536;83;21023;-80
2021/09/17 09:57:28;;;;;;;5.15;3.37;;;;;;;17.41;75.34;99766.89;2106619;83;21046;-79
2021/09/17 10:00:29;;;;;;;5.72;3.10;;;;;;;17.42;75.07;99767.17;2107086;83;21074;-79
2021/09/17 10:03:32;;;;;;;5.17;3.40;;;;;;;17.46;74.51;99763.84;2113042;83;21026;-79
2021/09/17 10:06:38;;;;;;;10.05;3.67;;;;;;;17.57;74.55;99761.46;2110079;83;21037;-80
2021/09/17 10:09:41;;;;;;;5.67;3.20;;;;;;;17.66;74.46;99763.66;2112946;83;21546;-80
2021/09/17 10:12:46;;;;;;;3.33;3.02;;;;;;;17.71;74.05;99761.66;2112128;83;21018;-78
2021/09/17 10:15:48;;;;;;;5.87;3.27;;;;;;;17.70;73.67;99765.36;2111377;83;22280;-81
2021/09/17 10:18:50;;;;;;;3.27;2.90;;;;;;;17.79;74.03;99757.34;2111465;83;21045;-79
2021/09/17 10:21:55;;;;;;;3.45;2.77;;;;;;;17.97;73.92;99753.05;2113326;83;21053;-79
2021/09/17 10:25:08;;;;;;;4.33;2.80;;;;;;;18.05;73.26;99740.14;2108018;83;21006;-80
2021/09/17 10:28:11;;;;;;;4.85;2.40;;;;;;;18.10;72.95;99746.16;2106715;83;21510;-79
2021/09/17 10:31:19;;;;;;;4.42;2.30;;;;;;;18.04;71.96;99747.88;2107990;83;21029;-79
2021/09/17 10:34:43;;;;;;;5.92;2.70;;;;;;;17.98;71.92;99753.34;2111999;83;21001;-80
2021/09/17 10:38:15;;;;;;;6.78;2.90;;;;;;;17.88;71.62;99747.16;2111461;82;21094;-81
2021/09/17 10:41:13;;;;;;;5.22;2.55;;;;;;;17.86;71.63;99746.56;2109038;83;21462;-79
2021/09/17 10:44:15;;;;;;;5.70;2.90;;;;;;;17.92;71.48;99744.31;2114254;83;21095;-79
2021/09/17 10:47:45;;;;;;;5.58;2.87;;;;;;;17.97;71.17;99736.42;2111744;83;21037;-79
2021/09/17 10:50:57;;;;;;;4.10;3.20;;;;;;;17.97;70.97;99738.29;2112351;83;20958;-81
2021/09/17 10:54:15;;;;;;;6.15;2.98;;;;;;;18.04;71.15;99733.64;2089971;83;21017;-81
2021/09/17 10:57:13;;;;;;;3.85;3.50;;;;;;;18.10;70.91;99729.56;2071012;84;21069;-78
2021/09/17 11:00:36;;;;;;;4.67;3.10;;;;;;;18.16;70.62;99734.55;2089162;84;21009;-77
2021/09/17 11:03:55;;;;;;;5.87;3.77;;;;;;;18.10;69.96;99738.95;2091319;84;21488;-81
2021/09/17 11:07:31;;;;;;;8.83;3.77;;;;;;;18.06;69.96;99736.41;2092891;84;21006;-80
2021/09/17 11:10:33;;;;;;;4.03;3.65;;;;;;;18.01;69.42;99737.59;2086763;84;21488;-78
2021/09/17 11:13:33;;;;;;;6.35;3.80;;;;;;;17.89;69.19;99741.55;2085580;83;21498;-77
2021/09/17 11:16:35;;;;;;;7.45;3.62;;;;;;;17.78;69.33;99739.61;2088131;84;20982;-79
2021/09/17 11:19:37;;;;;;;3.12;2.83;;;;;;;17.74;69.35;99737.06;2093453;83;21049;-78
2021/09/17 11:22:55;;;;;;;4.00;2.77;;;;;;;17.64;69.02;99742.11;2087561;84;20962;-79
2021/09/17 11:25:58;;;;;;;3.00;2.10;;;;;;;17.55;69.25;99741.58;2093723;84;20990;-78
2021/09/17 11:29:07;;;;;;;2.27;1.70;;;;;;;17.45;68.92;99735.36;2089191;83;21033;-78
2021/09/17 11:32:09;;;;;;;1.75;1.37;;;;;;;17.34;67.67;99738.77;2066787;84;22496;-78
2021/09/17 11:35:12;;;;;;;3.08;1.80;;;;;;;17.25;67.90;99729.37;2089939;84;21548;-79
2021/09/17 11:38:14;;;;;;;5.00;2.60;;;;;;;17.20;68.21;99725.18;2088651;84;21072;-76
2021/09/17 11:41:15;;;;;;;3.83;1.92;;;;;;;17.22;68.46;99724.45;2090626;83;21044;-78
2021/09/17 11:44:39;;;;;;;5.80;1.70;;;;;;;17.28;68.43;99722.75;2087456;83;20993;-76
2021/09/17 11:47:50;;;;;;;2.77;1.70;;;;;;;17.31;68.32;99721.78;2086400;83;21056;-79
2021/09/17 11:50:54;;;;;;;1.92;1.72;;;;;;;17.28;68.25;99718.20;2084593;84;21068;-79
2021/09/17 11:53:57;;;;;;;5.03;1.70;;;;;;;17.33;68.52;99714.34;2120777;82;21850;-80
2021/09/17 11:57:12;;;;;;;2.25;2.05;;;;;;;17.41;68.42;99716.75;2130545;81;21009;-80
2021/09/17 12:00:24;;;;;;;4.58;2.20;;;;;;;17.57;68.31;99716.70;2124055;81;21057;-79
2021/09/17 12:03:26;;;;;;;4.33;2.25;;;;;;;17.66;68.11;99713.20;2128588;82;21414;-80
2021/09/17 12:06:28;;;;;;;5.12;2.00;;;;;;;17.76;68.11;99712.67;2127075;81;21025;-79
2021/09/17 12:09:30;;;;;;;3.27;1.92;;;;;;;17.86;68.01;99715.17;2127637;81;21050;-79
2021/09/17 12:12:33;;;;;;;4.92;2.02;;;;;;;17.97;67.79;99711.45;2125494;82;21072;-81
2021/09/17 12:15:39;;;;;;;2.87;2.40;;;;;;;18.00;67.65;99719.05;2122370;82;21440;-80
2021/09/17 12:18:40;;;;;;;5.20;1.85;;;;;;;17.90;67.25;99725.74;2125787;82;20989;-80
2021/09/17 12:21:42;;;;;;;4.10;2.12;;;;;;;17.72;67.38;99723.56;2127253;81;21059;-80
2021/09/17 12:24:45;;;;;;;7.58;2.42;;;;;;;17.59;67.79;99731.22;2131308;82;21541;-80
2021/09/17 12:27:53;;;;;;;3.17;2.67;;;;;;;17.47;68.03;99730.61;2126507;81;21064;-80
2021/09/17 12:30:54;;;;;;;3.60;2.47;;;;;;;17.40;68.49;99730.36;2123149;82;21539;-80
2021/09/17 12:34:07;;;;;;;3.95;2.00;;;;;;;17.39;68.78;99736.78;2129784;81;21017;-80
2021/09/17 12:37:14;;;;;;;2.75;2.40;;;;;;;17.32;68.96;99738.19;2131895;82;20994;-79
2021/09/17 12:40:19;;;;;;;3.30;2.62;;;;;;;17.23;69.43;99736.31;2128247;82;21048;-80
2021/09/17 12:43:29;;;;;;;3.58;2.60;;;;;;;17.18;69.48;99742.84;2129481;82;21024;-80
2021/09/17 12:46:33;;;;;;;;;;;;;;;17.07;69.56;99742.73;2128680;81;21028;-80
2021/09/17 12:49:35;;;;;;;2.50;2.30;;;;;;;17.01;69.78;99743.91;2126837;82;20117;-80
2021/09/17 12:52:46;;;;;;;2.65;2.45;;;;;;;16.99;69.72;99747.31;2128911;81;21000;-80
2021/09/17 12:56:04;;;;;;;3.10;2.00;;;;;;;16.94;69.77;99746.32;2136692;82;21020;-79
2021/09/17 12:59:10;;;;;;;2.30;1.80;;;;;;;16.87;69.82;99751.73;2134913;82;21039;-80
2021/09/17 13:02:11;;;;;;;1.60;1.50;;;;;;;16.69;69.58;99754.28;2132077;81;21042;-80
2021/09/17 13:05:13;;;;;;;1.92;1.20;;;;;;;16.47;70.10;99761.81;2133294;81;21085;-80
2021/09/17 13:08:15;;;;;;;1.90;1.80;;;;;;;16.24;70.52;99765.02;2134858;81;22252;-79
2021/09/17 13:11:17;;;;;;;2.85;1.80;;;;;;;16.11;71.19;99771.26;2137356;82;20955;-80
2021/09/17 13:14:19;;;;;;;2.30;2.10;;;;;;;16.04;71.57;99772.59;2136934;81;21319;-79
2021/09/17 13:17:21;;;;;;;2.33;1.95;;;;;;;15.93;71.81;99769.75;2136723;82;21064;-79
2021/09/17 13:20:22;;;;;;;3.10;1.82;;;;;;;15.88;72.26;99772.56;2135157;82;21056;-79
2021/09/17 13:23:24;;;;;;;2.17;1.80;;;;;;;15.80;72.53;99779.47;2135132;81;21021;-79
2021/09/17 13:26:25;;;;;;;2.12;1.45;;;;;;;15.68;72.95;99767.25;2135369;82;21015;-79
2021/09/17 13:29:27;;;;;;;1.65;1.50;;;;;;;15.59;73.47;99759.09;2136644;81;22446;-80
2021/09/17 13:32:29;;;;;;;1.62;1.52;;;;;;;15.57;73.83;99753.15;2133497;82;21065;-80
2021/09/17 13:35:33;;;;;;;1.40;1.40;;;;;;;15.58;73.95;99753.97;2133916;81;20951;-81
2021/09/17 13:38:34;;;;;;;3.12;1.20;;;;;;;15.60;74.29;99755.92;2133198;81;21035;-80
2021/09/17 13:41:36;;;;;;;5.70;1.87;;;;;;;15.67;74.23;99754.05;2134473;82;20992;-80
2021/09/17 13:44:38;;;;;;;1.72;1.62;;;;;;;15.75;74.46;99759.73;2136086;81;20977;-80
2021/09/17 13:47:40;;;;;;;2.60;1.62;;;;;;;15.86;74.51;99749.20;2131567;82;21021;-80
2021/09/17 13:50:42;;;;;;;3.90;1.60;;;;;;;15.95;74.53;99755.14;2135797;82;21015;-80
2021/09/17 13:53:45;;;;;;;1.50;1.40;;;;;;;16.01;74.44;99751.61;2129702;81;21027;-80
2021/09/17 13:56:46;;;;;;;1.60;1.50;;;;;;;16.14;74.54;99749.42;2130611;82;21044;-80
2021/09/17 13:59:48;;;;;;;1.40;1.30;;;;;;;16.21;74.33;99752.06;2128533;82;21095;-79
2021/09/17 14:02:50;;;;;;;3.55;1.70;;;;;;;16.33;74.42;99753.02;2128741;82;21473;-79
2021/09/17 14:05:52;;;;;;;3.72;1.70;;;;;;;16.47;74.43;99742.58;2126367;81;20985;-80
2021/09/17 14:08:53;;;;;;;3.12;2.25;;;;;;;16.59;74.42;99745.39;2126124;81;21546;-81
2021/09/17 14:11:55;;;;;;;1.85;1.75;;;;;;;16.63;73.89;99740.42;2126626;82;22299;-79
2021/09/17 14:14:57;;;;;;;1.87;1.77;;;;;;;16.62;73.80;99744.14;2134653;82;21023;-78